Terminal Aerodrome Forecast
Issued by NWS

Home | Current Version | Previous Version | Text Only | Print | Product List | Glossary On
Versions: 1 2 3 4 5 6 7 8 9 10 11 12 13
000
FTUS45 KRIW 180500
TAFJAC
TAF
KJAC 180520Z 1806/1906 VRB05KT P6SM SCT110 BKN200
     FM180900 19007KT P6SM VCSH SCT050 OVC100
     FM181200 20010KT P6SM -SHRA SCT025 OVC050
      TEMPO 1814/1818 5SM -SHRA SCT012 BKN025
     FM182000 19015G25KT P6SM VCSH SCT040 BKN080
     FM190000 20014KT P6SM FEW050 SCT100
     FM190300 22008KT P6SM SKC
      AMD LTD TO CLD VIS AND WIND=

USA.gov is the U.S. government's official web portal to all federal, state and local government web resources and services.